Terminal Aerodrome Forecast
Issued by NWS Charleston, WV

Current Version | Previous Version | Graphics & Text | Print | Product List | Glossary On
Versions: 1 2 3 4 5 6 7 8 9 10 11 12 13 14 15 16 17 18 19 20 21 22 23 24 25 26 27
000
FTUS41 KRLX 260500
TAFPKB
TAF
KPKB 260540Z 2606/2706 00000KT P6SM BKN100
     FM261500 21007KT P6SM SCT050
     FM262300 22004KT P6SM SCT120
     FM270200 19003KT P6SM BKN080
     FM270400 17003KT 5SM SHRA VCTS BKN045CB
      AMD NOT SKED=

USA.gov is the U.S. government's official web portal to all federal, state and local government web resources and services.